createdAt,value
2023-06-10T00:00:23.777Z,4.45
2023-06-10T00:03:26.640Z,4.38
2023-06-10T00:06:29.576Z,3.97
2023-06-10T00:09:31.713Z,4.25
2023-06-10T00:12:38.205Z,3.97
2023-06-10T00:15:40.683Z,4.15
2023-06-10T00:18:42.955Z,3.97
2023-06-10T00:21:45.903Z,3.83
2023-06-10T00:24:48.774Z,4.13
2023-06-10T00:27:50.742Z,4.20
2023-06-10T00:30:52.798Z,4.22
2023-06-10T00:33:55.018Z,4.20
2023-06-10T00:36:57.034Z,4.10
2023-06-10T00:39:59.439Z,4.10
2023-06-10T00:43:01.374Z,4.25
2023-06-10T00:46:03.653Z,3.85
2023-06-10T00:49:07.071Z,4.05
2023-06-10T00:52:11.206Z,3.57
2023-06-10T00:55:13.372Z,4.13
2023-06-10T00:58:17.216Z,4.40
2023-06-10T01:01:21.249Z,3.95
2023-06-10T01:04:24.923Z,3.88
2023-06-10T01:07:38.513Z,3.80
2023-06-10T01:11:11.213Z,3.40
2023-06-10T01:14:15.402Z,3.72
2023-06-10T01:17:19.339Z,4.03
2023-06-10T01:20:21.385Z,3.90
2023-06-10T01:23:23.419Z,4.30
2023-06-10T01:26:33.381Z,4.05
2023-06-10T01:29:45.835Z,3.85
2023-06-10T01:32:52.473Z,4.38
2023-06-10T01:35:56.469Z,3.80
2023-06-10T01:39:00.090Z,3.70
2023-06-10T01:42:03.666Z,3.70
2023-06-10T01:45:07.057Z,3.97
2023-06-10T01:48:09.224Z,4.03
2023-06-10T01:51:11.286Z,4.28
2023-06-10T01:54:13.289Z,4.37
2023-06-10T01:57:15.356Z,4.40
2023-06-10T02:00:17.815Z,4.50
2023-06-10T02:03:20.901Z,4.18
2023-06-10T02:06:23.216Z,3.63
2023-06-10T02:09:26.313Z,3.70
2023-06-10T02:12:28.306Z,4.15
2023-06-10T02:15:30.332Z,4.25
2023-06-10T02:18:32.644Z,4.18
2023-06-10T02:21:35.555Z,4.00
2023-06-10T02:24:40.947Z,4.20
2023-06-10T02:27:42.925Z,3.67
2023-06-10T02:30:45.165Z,3.70
2023-06-10T02:33:47.508Z,3.72
2023-06-10T02:36:52.443Z,4.15
2023-06-10T02:39:57.118Z,3.70
2023-06-10T02:42:59.931Z,3.75
2023-06-10T02:46:02.693Z,3.53
2023-06-10T02:49:06.503Z,4.22
2023-06-10T02:52:09.341Z,4.35
2023-06-10T02:55:12.034Z,3.80
2023-06-10T02:58:16.655Z,3.80
2023-06-10T03:01:20.043Z,4.40
2023-06-10T03:04:38.832Z,4.38
2023-06-10T03:07:47.532Z,4.72
2023-06-10T03:10:51.495Z,4.73
2023-06-10T03:13:55.185Z,4.97
2023-06-10T03:16:57.731Z,4.97
2023-06-10T03:20:01.084Z,5.00
2023-06-10T03:23:03.161Z,6.10
2023-06-10T03:26:06.024Z,5.00
2023-06-10T03:29:09.642Z,4.75
2023-06-10T03:32:11.691Z,5.68
2023-06-10T03:35:15.867Z,5.38
2023-06-10T03:38:17.849Z,4.80
2023-06-10T03:41:20.477Z,5.20
2023-06-10T03:44:23.108Z,4.05
2023-06-10T03:47:25.091Z,4.82
2023-06-10T03:50:27.878Z,4.00
2023-06-10T03:53:29.914Z,4.43
2023-06-10T03:56:32.696Z,4.00
2023-06-10T03:59:34.694Z,4.13
2023-06-10T04:02:37.972Z,4.63
2023-06-10T04:05:40.056Z,4.60
2023-06-10T04:08:43.895Z,4.35
2023-06-10T04:11:45.933Z,4.67
2023-06-10T04:14:48.181Z,5.53
2023-06-10T04:17:50.599Z,4.60
2023-06-10T04:20:54.762Z,5.10
2023-06-10T04:23:56.855Z,5.18
2023-06-10T04:26:59.212Z,6.27
2023-06-10T04:30:01.470Z,7.05
2023-06-10T04:33:04.992Z,7.43
2023-06-10T04:36:07.964Z,7.30
2023-06-10T04:39:11.542Z,8.75
2023-06-10T04:42:13.946Z,8.23
2023-06-10T04:45:16.930Z,10.15
2023-06-10T04:48:19.179Z,9.13
2023-06-10T04:51:21.302Z,9.65
2023-06-10T04:54:23.304Z,8.73
2023-06-10T04:57:25.607Z,8.67
2023-06-10T05:00:27.625Z,8.52
2023-06-10T05:03:29.677Z,9.93
2023-06-10T05:06:31.732Z,10.13
2023-06-10T05:09:34.179Z,10.23
2023-06-10T05:12:36.160Z,9.00
2023-06-10T05:15:38.476Z,9.63
2023-06-10T05:18:40.466Z,9.35
2023-06-10T05:21:42.601Z,10.25
2023-06-10T05:24:45.356Z,9.45
2023-06-10T05:27:47.393Z,10.87
2023-06-10T05:30:49.311Z,11.82
2023-06-10T05:33:52.574Z,12.38
2023-06-10T05:36:54.538Z,10.90
2023-06-10T05:39:56.592Z,12.38
2023-06-10T05:42:58.823Z,11.83
2023-06-10T05:46:00.996Z,12.48
2023-06-10T05:49:02.932Z,10.73
2023-06-10T05:52:05.337Z,11.55
2023-06-10T05:55:07.872Z,11.88
2023-06-10T05:58:10.226Z,12.53
2023-06-10T06:01:12.311Z,12.73
2023-06-10T06:04:14.516Z,12.02
2023-06-10T06:07:16.727Z,10.85
2023-06-10T06:10:19.702Z,10.85
2023-06-10T06:13:21.742Z,11.23
2023-06-10T06:16:23.764Z,9.77
2023-06-10T06:19:25.788Z,10.73
2023-06-10T06:22:27.786Z,10.38
2023-06-10T06:25:29.835Z,11.23
2023-06-10T06:28:32.547Z,11.17
2023-06-10T06:31:35.611Z,11.30
2023-06-10T06:34:37.656Z,11.07
2023-06-10T06:37:39.765Z,12.18
2023-06-10T06:40:56.384Z,11.23
2023-06-10T06:43:58.577Z,11.83
2023-06-10T06:47:14.435Z,10.90
2023-06-10T06:50:17.594Z,12.45
2023-06-10T06:53:19.781Z,11.77
2023-06-10T06:56:22.424Z,12.65
2023-06-10T06:59:24.916Z,12.67
2023-06-10T07:02:26.903Z,12.15
2023-06-10T07:05:29.064Z,12.55
2023-06-10T07:08:31.180Z,12.13
2023-06-10T07:11:33.253Z,12.15
2023-06-10T07:14:35.380Z,11.53
2023-06-10T07:17:37.404Z,12.63
2023-06-10T07:20:39.459Z,12.40
2023-06-10T07:23:44.981Z,10.55
2023-06-10T07:26:47.125Z,9.60
2023-06-10T07:29:49.198Z,8.30
2023-06-10T07:32:52.558Z,10.07
2023-06-10T07:35:54.555Z,9.20
2023-06-10T07:38:56.753Z,9.35
2023-06-10T07:41:58.751Z,10.18
2023-06-10T07:45:01.489Z,10.77
2023-06-10T07:48:03.726Z,9.93
2023-06-10T07:51:05.842Z,9.50
2023-06-10T07:54:07.893Z,10.32
2023-06-10T07:57:09.924Z,10.35
2023-06-10T08:00:12.248Z,10.03
2023-06-10T08:03:17.188Z,9.15
2023-06-10T08:06:19.301Z,7.95
2023-06-10T08:09:22.656Z,8.90
2023-06-10T08:12:24.770Z,8.90
2023-06-10T08:15:26.740Z,8.47
2023-06-10T08:18:28.847Z,9.25
2023-06-10T08:21:30.842Z,8.40
2023-06-10T08:24:33.754Z,7.53
2023-06-10T08:27:35.702Z,5.85
2023-06-10T08:30:37.780Z,6.60
2023-06-10T08:33:39.830Z,7.43
2023-06-10T08:36:41.920Z,7.72
2023-06-10T08:39:43.915Z,6.53
2023-06-10T08:42:54.164Z,6.82
2023-06-10T08:46:01.455Z,6.73
2023-06-10T08:49:06.718Z,7.10
2023-06-10T08:52:10.238Z,7.15
2023-06-10T08:55:16.446Z,6.03
2023-06-10T08:58:19.039Z,6.60
2023-06-10T09:01:21.292Z,5.00
2023-06-10T09:04:25.853Z,4.30
2023-06-10T09:07:28.127Z,2.90
2023-06-10T09:10:30.894Z,2.17
2023-06-10T09:13:32.963Z,2.80
2023-06-10T09:16:35.625Z,2.77
2023-06-10T09:19:39.719Z,2.40
2023-06-10T09:22:43.618Z,2.30
2023-06-10T09:25:45.735Z,1.90
2023-06-10T09:28:53.862Z,1.90
2023-06-10T09:31:56.309Z,2.03
2023-06-10T09:34:58.899Z,2.10
2023-06-10T09:38:03.442Z,2.38
2023-06-10T09:41:05.523Z,2.20
2023-06-10T09:44:20.153Z,2.20
2023-06-10T09:47:23.746Z,2.30
2023-06-10T09:50:27.554Z,2.33
2023-06-10T09:53:32.152Z,2.80
2023-06-10T09:56:36.397Z,2.95
2023-06-10T09:59:39.339Z,2.40
2023-06-10T10:02:50.171Z,2.33
2023-06-10T10:06:00.653Z,2.17
2023-06-10T10:09:05.066Z,2.38
2023-06-10T10:12:17.341Z,2.30
2023-06-10T10:15:19.828Z,2.40
2023-06-10T10:18:30.188Z,2.47
2023-06-10T10:21:38.203Z,2.10
2023-06-10T10:24:46.987Z,2.00
2023-06-10T10:27:52.049Z,2.47
2023-06-10T10:30:59.092Z,2.28
2023-06-10T10:34:03.871Z,2.30
2023-06-10T10:37:06.041Z,2.42
2023-06-10T10:40:08.972Z,2.67
2023-06-10T10:43:11.843Z,2.05
2023-06-10T10:46:15.627Z,1.85
2023-06-10T10:49:19.379Z,1.73
2023-06-10T10:52:21.700Z,1.92
2023-06-10T10:55:24.939Z,2.42
2023-06-10T10:58:27.301Z,2.15
2023-06-10T11:01:46.932Z,2.20
2023-06-10T11:04:49.986Z,3.60
2023-06-10T11:07:59.648Z,4.32
2023-06-10T11:11:01.897Z,4.70
2023-06-10T11:14:05.479Z,4.18
2023-06-10T11:17:19.986Z,4.35
2023-06-10T11:20:49.912Z,3.47
2023-06-10T11:23:53.587Z,3.30
2023-06-10T11:26:55.595Z,2.85
2023-06-10T11:30:01.080Z,2.70
2023-06-10T11:33:03.313Z,2.80
2023-06-10T11:36:08.975Z,3.03
2023-06-10T11:39:11.624Z,2.30
2023-06-10T11:42:13.919Z,2.70
2023-06-10T11:45:19.825Z,1.77
2023-06-10T11:48:21.840Z,2.10
2023-06-10T11:51:27.169Z,1.57
2023-06-10T11:54:29.192Z,1.77
2023-06-10T11:57:31.184Z,1.50
2023-06-10T12:00:33.609Z,1.70
2023-06-10T12:03:39.416Z,1.40
2023-06-10T12:06:52.118Z,1.57
2023-06-10T12:10:06.628Z,1.48
2023-06-10T12:13:11.263Z,1.50
2023-06-10T12:16:13.465Z,1.40
2023-06-10T12:19:15.484Z,1.42
2023-06-10T12:22:17.768Z,1.13
2023-06-10T12:25:29.150Z,1.10
2023-06-10T12:28:31.102Z,1.20
2023-06-10T12:31:33.114Z,1.23
2023-06-10T12:34:40.453Z,1.30
2023-06-10T12:37:45.324Z,1.10
2023-06-10T12:40:47.375Z,1.27
2023-06-10T12:43:49.477Z,1.20
2023-06-10T12:46:56.765Z,1.10
2023-06-10T12:50:00.006Z,1.35
2023-06-10T12:53:02.696Z,1.40
2023-06-10T12:56:04.711Z,1.20
2023-06-10T12:59:07.024Z,1.50
2023-06-10T13:02:09.646Z,1.40
2023-06-10T13:05:14.357Z,1.40
2023-06-10T13:08:18.596Z,1.63
2023-06-10T13:11:20.588Z,1.60
2023-06-10T13:14:22.882Z,1.55
2023-06-10T13:17:25.601Z,1.60
2023-06-10T13:20:27.704Z,1.50
2023-06-10T13:23:29.807Z,1.40
2023-06-10T13:26:31.888Z,1.70
2023-06-10T13:29:34.048Z,1.60
2023-06-10T13:32:36.955Z,1.70
2023-06-10T13:35:39.232Z,1.70
2023-06-10T13:38:41.313Z,1.60
2023-06-10T13:41:43.403Z,1.70
2023-06-10T13:44:45.463Z,1.85
2023-06-10T13:47:47.753Z,1.75
2023-06-10T13:50:49.868Z,1.70
2023-06-10T13:53:52.955Z,1.30
2023-06-10T13:56:55.071Z,1.30
2023-06-10T13:59:57.611Z,1.50
2023-06-10T14:02:59.869Z,1.40
2023-06-10T14:06:01.952Z,1.80
2023-06-10T14:09:04.384Z,1.73
2023-06-10T14:12:07.522Z,1.55
2023-06-10T14:15:09.932Z,1.63
2023-06-10T14:18:12.372Z,2.00
2023-06-10T14:21:14.473Z,1.83
2023-06-10T14:24:16.578Z,1.40
2023-06-10T14:27:18.736Z,1.00
2023-06-10T14:30:20.959Z,1.50
2023-06-10T14:33:23.011Z,1.60
2023-06-10T14:36:25.200Z,1.45
2023-06-10T14:39:27.643Z,1.00
2023-06-10T14:42:29.576Z,1.30
2023-06-10T14:48:33.697Z,1.92
2023-06-10T14:51:37.000Z,1.98
2023-06-10T14:54:39.137Z,2.20
2023-06-10T14:57:41.149Z,1.98
2023-06-10T15:00:43.243Z,2.20
2023-06-10T15:03:45.878Z,2.00
2023-06-10T15:06:49.762Z,1.98
2023-06-10T15:09:51.912Z,1.90
2023-06-10T15:12:56.963Z,2.40
2023-06-10T15:16:01.061Z,2.05
2023-06-10T15:19:09.423Z,1.90
2023-06-10T15:22:12.972Z,2.10
2023-06-10T15:28:20.193Z,1.60
2023-06-10T15:31:22.270Z,2.42
2023-06-10T15:34:24.346Z,2.40
2023-06-10T15:37:26.288Z,2.17
2023-06-10T15:40:28.320Z,2.30
2023-06-10T15:43:30.625Z,2.50
2023-06-10T15:46:32.883Z,2.60
2023-06-10T15:49:34.953Z,2.83
2023-06-10T15:52:37.165Z,3.00
2023-06-10T15:55:39.145Z,3.07
2023-06-10T15:58:41.374Z,3.10
2023-06-10T16:01:43.480Z,2.65
2023-06-10T16:04:45.643Z,2.60
2023-06-10T16:07:47.802Z,2.80
2023-06-10T16:10:50.217Z,2.77
2023-06-10T16:13:52.276Z,2.42
2023-06-10T16:16:54.266Z,2.72
2023-06-10T16:19:56.340Z,2.33
2023-06-10T16:22:58.341Z,2.60
2023-06-10T16:26:00.278Z,2.60
2023-06-10T16:29:02.265Z,2.25
2023-06-10T16:32:04.586Z,2.58
2023-06-10T16:35:06.926Z,2.15
2023-06-10T16:38:09.165Z,2.60
2023-06-10T16:41:11.169Z,2.33
2023-06-10T16:44:13.837Z,2.55
2023-06-10T16:47:16.177Z,2.60
2023-06-10T16:50:20.481Z,2.60
2023-06-10T16:53:22.539Z,2.72
2023-06-10T16:56:24.497Z,2.00
2023-06-10T16:59:26.440Z,2.00
2023-06-10T17:02:28.467Z,1.80
2023-06-10T17:05:30.864Z,2.20
2023-06-10T17:08:32.908Z,1.88
2023-06-10T17:11:34.902Z,2.30
2023-06-10T17:14:37.025Z,1.83
2023-06-10T17:17:39.088Z,2.15
2023-06-10T17:20:41.132Z,2.25
2023-06-10T17:23:43.132Z,2.05
2023-06-10T17:26:45.138Z,2.33
2023-06-10T17:29:47.126Z,2.22
2023-06-10T17:32:50.821Z,2.00
2023-06-10T17:35:52.978Z,2.33
2023-06-10T17:38:54.959Z,2.22
2023-06-10T17:41:56.918Z,2.53
2023-06-10T17:44:58.819Z,2.05
2023-06-10T17:48:01.086Z,2.78
2023-06-10T17:51:03.216Z,2.08
2023-06-10T17:54:07.857Z,2.38
2023-06-10T17:57:09.902Z,2.33
2023-06-10T18:00:12.323Z,2.45
2023-06-10T18:03:16.607Z,2.72
2023-06-10T18:06:18.839Z,2.75
2023-06-10T18:09:22.684Z,3.22
2023-06-10T18:12:24.814Z,3.50
2023-06-10T18:15:27.717Z,3.15
2023-06-10T18:18:29.949Z,2.65
2023-06-10T18:21:31.971Z,2.78
2023-06-10T18:24:34.038Z,3.20
2023-06-10T18:27:36.114Z,2.83
2023-06-10T18:30:38.071Z,3.38
2023-06-10T18:33:40.176Z,2.55
2023-06-10T18:36:42.312Z,3.60
2023-06-10T18:39:44.336Z,3.13
2023-06-10T18:42:46.367Z,3.40
2023-06-10T18:45:48.579Z,3.15
2023-06-10T18:48:51.319Z,3.17
2023-06-10T18:51:53.348Z,3.35
2023-06-10T18:54:55.507Z,3.40
2023-06-10T18:57:57.606Z,3.37
2023-06-10T19:01:01.256Z,3.03
2023-06-10T19:04:04.280Z,3.33
2023-06-10T19:07:06.379Z,3.10
2023-06-10T19:10:08.813Z,2.97
2023-06-10T19:13:10.955Z,3.30
2023-06-10T19:16:13.021Z,2.75
2023-06-10T19:19:15.268Z,3.20
2023-06-10T19:22:17.304Z,3.17
2023-06-10T19:25:20.307Z,2.63
2023-06-10T19:28:24.281Z,3.33
2023-06-10T19:31:26.358Z,3.13
2023-06-10T19:34:28.532Z,3.08
2023-06-10T19:37:31.119Z,2.97
2023-06-10T19:40:33.154Z,2.63
2023-06-10T19:43:35.149Z,2.33
2023-06-10T19:46:37.114Z,2.90
2023-06-10T19:49:39.119Z,2.80
2023-06-10T19:52:41.391Z,3.05
2023-06-10T19:55:43.523Z,2.50
2023-06-10T19:58:47.480Z,2.33
2023-06-10T20:01:49.804Z,2.63
2023-06-10T20:04:52.718Z,2.97
2023-06-10T20:07:55.052Z,2.97
2023-06-10T20:10:57.106Z,2.65
2023-06-10T20:13:59.167Z,3.10
2023-06-10T20:17:01.350Z,2.65
2023-06-10T20:20:04.860Z,3.28
2023-06-10T20:23:07.018Z,3.08
2023-06-10T20:26:09.003Z,2.75
2023-06-10T20:29:11.245Z,3.03
2023-06-10T20:32:13.286Z,3.95
2023-06-10T20:35:15.350Z,3.80
2023-06-10T20:38:17.332Z,3.55
2023-06-10T20:41:19.466Z,4.03
2023-06-10T20:44:21.568Z,4.20
2023-06-10T20:47:23.855Z,3.55
2023-06-10T20:50:26.049Z,4.20
2023-06-10T20:53:28.092Z,5.20
2023-06-10T20:56:30.535Z,4.07
2023-06-10T20:59:35.170Z,4.00
2023-06-10T21:02:37.211Z,4.35
2023-06-10T21:05:39.211Z,4.13
2023-06-10T21:08:41.230Z,4.10
2023-06-10T21:11:43.652Z,3.70
2023-06-10T21:14:45.646Z,3.83
2023-06-10T21:17:47.708Z,4.00
2023-06-10T21:20:49.817Z,3.53
2023-06-10T21:23:53.591Z,3.60
2023-06-10T21:26:55.591Z,4.07
2023-06-10T21:29:58.056Z,3.63
2023-06-10T21:33:00.658Z,4.38
2023-06-10T21:36:02.764Z,3.90
2023-06-10T21:39:05.051Z,4.18
2023-06-10T21:42:07.417Z,3.90
2023-06-10T21:45:10.097Z,4.17
2023-06-10T21:48:12.545Z,4.60
2023-06-10T21:51:14.616Z,3.88
2023-06-10T21:54:16.651Z,4.00
2023-06-10T21:57:18.693Z,4.50
2023-06-10T22:00:20.978Z,4.47
2023-06-10T22:03:23.131Z,4.53
2023-06-10T22:06:25.859Z,4.22
2023-06-10T22:09:28.018Z,4.22
2023-06-10T22:12:30.078Z,4.38
2023-06-10T22:15:32.151Z,5.17
2023-06-10T22:18:34.377Z,4.72
2023-06-10T22:21:37.571Z,4.20
2023-06-10T22:24:39.675Z,4.70
2023-06-10T22:27:41.605Z,5.22
2023-06-10T22:30:43.733Z,4.47
2023-06-10T22:33:45.723Z,4.53
2023-06-10T22:36:47.793Z,5.15
2023-06-10T22:39:49.791Z,4.22
2023-06-10T22:42:51.774Z,4.75
2023-06-10T22:45:53.813Z,5.10
2023-06-10T22:48:55.863Z,6.15
2023-06-10T22:51:57.862Z,5.18
2023-06-10T22:54:59.884Z,4.50
2023-06-10T22:58:01.876Z,5.60
2023-06-10T23:01:03.975Z,5.70
2023-06-10T23:04:06.114Z,5.28
2023-06-10T23:07:10.378Z,5.43
2023-06-10T23:10:12.461Z,5.65
2023-06-10T23:13:14.718Z,5.80
2023-06-10T23:16:16.848Z,5.73
2023-06-10T23:19:23.223Z,5.45
2023-06-10T23:22:25.865Z,5.60
2023-06-10T23:25:29.015Z,5.75
2023-06-10T23:28:31.164Z,6.18
2023-06-10T23:31:33.155Z,5.57
2023-06-10T23:34:35.333Z,5.25
2023-06-10T23:37:37.544Z,5.82
2023-06-10T23:40:39.514Z,6.07
2023-06-10T23:43:41.472Z,5.82
2023-06-10T23:46:43.515Z,5.77
2023-06-10T23:49:46.066Z,5.57
2023-06-10T23:52:48.058Z,6.53
2023-06-10T23:55:50.046Z,5.82
2023-06-10T23:58:52.141Z,6.28
